sensor_id;sensor_type;location;lat;lon;timestamp;P1;durP1;ratioP1;P2;durP2;ratioP2
72517;SDS011;60540;51.178;6.738;2024-01-15T00:01:50;27.48;;;10.52;;
72517;SDS011;60540;51.178;6.738;2024-01-15T00:04:38;30.25;;;11.35;;
72517;SDS011;60540;51.178;6.738;2024-01-15T00:07:23;25.55;;;11.02;;
72517;SDS011;60540;51.178;6.738;2024-01-15T00:10:08;23.48;;;10.80;;
72517;SDS011;60540;51.178;6.738;2024-01-15T00:12:52;32.83;;;12.60;;
72517;SDS011;60540;51.178;6.738;2024-01-15T00:15:36;25.50;;;11.25;;
72517;SDS011;60540;51.178;6.738;2024-01-15T00:18:20;29.42;;;11.68;;
72517;SDS011;60540;51.178;6.738;2024-01-15T00:21:04;29.20;;;10.73;;
72517;SDS011;60540;51.178;6.738;2024-01-15T00:23:48;27.48;;;10.05;;
72517;SDS011;60540;51.178;6.738;2024-01-15T00:26:33;33.38;;;13.00;;
72517;SDS011;60540;51.178;6.738;2024-01-15T00:29:17;27.15;;;8.82;;
72517;SDS011;60540;51.178;6.738;2024-01-15T00:32:01;29.77;;;12.23;;
72517;SDS011;60540;51.178;6.738;2024-01-15T00:34:45;33.03;;;11.90;;
72517;SDS011;60540;51.178;6.738;2024-01-15T00:37:30;33.42;;;11.57;;
72517;SDS011;60540;51.178;6.738;2024-01-15T00:40:14;28.20;;;11.27;;
72517;SDS011;60540;51.178;6.738;2024-01-15T00:42:59;33.17;;;10.77;;
72517;SDS011;60540;51.178;6.738;2024-01-15T00:45:43;23.80;;;10.50;;
72517;SDS011;60540;51.178;6.738;2024-01-15T00:48:27;23.35;;;11.00;;
72517;SDS011;60540;51.178;6.738;2024-01-15T00:51:11;24.20;;;9.10;;
72517;SDS011;60540;51.178;6.738;2024-01-15T00:53:56;23.92;;;10.65;;
72517;SDS011;60540;51.178;6.738;2024-01-15T00:56:40;19.70;;;8.93;;
72517;SDS011;60540;51.178;6.738;2024-01-15T00:59:25;31.13;;;11.35;;
72517;SDS011;60540;51.178;6.738;2024-01-15T01:02:09;30.15;;;11.32;;
72517;SDS011;60540;51.178;6.738;2024-01-15T01:04:53;26.25;;;9.15;;
72517;SDS011;60540;51.178;6.738;2024-01-15T01:07:38;18.60;;;8.98;;
72517;SDS011;60540;51.178;6.738;2024-01-15T01:10:22;22.40;;;9.50;;
72517;SDS011;60540;51.178;6.738;2024-01-15T01:13:06;26.83;;;11.32;;
72517;SDS011;60540;51.178;6.738;2024-01-15T01:15:51;25.08;;;10.15;;
72517;SDS011;60540;51.178;6.738;2024-01-15T01:18:35;22.95;;;9.35;;
72517;SDS011;60540;51.178;6.738;2024-01-15T01:21:20;26.75;;;10.68;;
72517;SDS011;60540;51.178;6.738;2024-01-15T01:24:04;27.05;;;11.05;;
72517;SDS011;60540;51.178;6.738;2024-01-15T01:26:49;23.67;;;10.02;;
72517;SDS011;60540;51.178;6.738;2024-01-15T01:29:33;16.38;;;7.78;;
72517;SDS011;60540;51.178;6.738;2024-01-15T01:32:18;23.23;;;8.88;;
72517;SDS011;60540;51.178;6.738;2024-01-15T01:35:03;25.00;;;9.43;;
72517;SDS011;60540;51.178;6.738;2024-01-15T01:37:47;24.85;;;10.50;;
72517;SDS011;60540;51.178;6.738;2024-01-15T01:40:31;21.30;;;9.63;;
72517;SDS011;60540;51.178;6.738;2024-01-15T01:43:16;22.70;;;11.18;;
72517;SDS011;60540;51.178;6.738;2024-01-15T01:46:00;24.98;;;9.25;;
72517;SDS011;60540;51.178;6.738;2024-01-15T01:48:45;23.50;;;11.93;;
72517;SDS011;60540;51.178;6.738;2024-01-15T01:51:29;21.08;;;10.35;;
72517;SDS011;60540;51.178;6.738;2024-01-15T01:54:14;24.90;;;8.60;;
72517;SDS011;60540;51.178;6.738;2024-01-15T01:56:58;21.70;;;9.77;;
72517;SDS011;60540;51.178;6.738;2024-01-15T01:59:43;22.63;;;9.65;;
72517;SDS011;60540;51.178;6.738;2024-01-15T02:02:28;26.85;;;11.25;;
72517;SDS011;60540;51.178;6.738;2024-01-15T02:05:12;20.13;;;9.57;;
72517;SDS011;60540;51.178;6.738;2024-01-15T02:07:58;26.25;;;10.32;;
72517;SDS011;60540;51.178;6.738;2024-01-15T02:10:42;26.38;;;10.57;;
72517;SDS011;60540;51.178;6.738;2024-01-15T02:13:26;19.83;;;8.82;;
72517;SDS011;60540;51.178;6.738;2024-01-15T02:16:11;25.60;;;11.48;;
72517;SDS011;60540;51.178;6.738;2024-01-15T02:18:55;23.08;;;10.57;;
72517;SDS011;60540;51.178;6.738;2024-01-15T02:21:41;25.92;;;11.32;;
72517;SDS011;60540;51.178;6.738;2024-01-15T02:24:25;27.38;;;9.55;;
72517;SDS011;60540;51.178;6.738;2024-01-15T02:27:10;20.05;;;8.77;;
72517;SDS011;60540;51.178;6.738;2024-01-15T02:29:55;28.77;;;10.45;;
72517;SDS011;60540;51.178;6.738;2024-01-15T02:32:39;27.23;;;11.27;;
72517;SDS011;60540;51.178;6.738;2024-01-15T02:35:23;19.77;;;9.20;;
72517;SDS011;60540;51.178;6.738;2024-01-15T02:38:08;22.10;;;10.15;;
72517;SDS011;60540;51.178;6.738;2024-01-15T02:40:52;18.38;;;9.10;;
72517;SDS011;60540;51.178;6.738;2024-01-15T02:43:36;21.17;;;11.05;;
72517;SDS011;60540;51.178;6.738;2024-01-15T02:46:20;20.92;;;8.65;;
72517;SDS011;60540;51.178;6.738;2024-01-15T02:49:05;26.75;;;10.45;;
72517;SDS011;60540;51.178;6.738;2024-01-15T02:51:49;24.65;;;10.60;;
72517;SDS011;60540;51.178;6.738;2024-01-15T02:54:33;23.40;;;9.50;;
72517;SDS011;60540;51.178;6.738;2024-01-15T02:57:17;25.00;;;9.05;;
72517;SDS011;60540;51.178;6.738;2024-01-15T03:00:01;23.30;;;9.65;;
72517;SDS011;60540;51.178;6.738;2024-01-15T03:02:47;22.63;;;8.82;;
72517;SDS011;60540;51.178;6.738;2024-01-15T03:05:32;19.90;;;8.38;;
72517;SDS011;60540;51.178;6.738;2024-01-15T03:08:16;20.33;;;9.73;;
72517;SDS011;60540;51.178;6.738;2024-01-15T03:11:01;19.60;;;8.45;;
72517;SDS011;60540;51.178;6.738;2024-01-15T03:13:45;15.98;;;8.90;;
72517;SDS011;60540;51.178;6.738;2024-01-15T03:16:30;15.18;;;7.80;;
72517;SDS011;60540;51.178;6.738;2024-01-15T03:19:14;24.10;;;10.07;;
72517;SDS011;60540;51.178;6.738;2024-01-15T03:21:58;16.92;;;8.02;;
72517;SDS011;60540;51.178;6.738;2024-01-15T03:24:44;17.42;;;8.57;;
72517;SDS011;60540;51.178;6.738;2024-01-15T03:27:29;16.85;;;6.72;;
72517;SDS011;60540;51.178;6.738;2024-01-15T03:30:13;16.98;;;7.10;;
72517;SDS011;60540;51.178;6.738;2024-01-15T03:32:57;13.52;;;7.80;;
72517;SDS011;60540;51.178;6.738;2024-01-15T03:35:42;18.67;;;8.30;;
72517;SDS011;60540;51.178;6.738;2024-01-15T03:38:28;17.85;;;8.35;;
72517;SDS011;60540;51.178;6.738;2024-01-15T03:41:14;17.63;;;8.00;;
72517;SDS011;60540;51.178;6.738;2024-01-15T03:43:59;26.42;;;8.07;;
72517;SDS011;60540;51.178;6.738;2024-01-15T03:46:45;20.65;;;8.93;;
72517;SDS011;60540;51.178;6.738;2024-01-15T03:49:30;21.40;;;9.63;;
72517;SDS011;60540;51.178;6.738;2024-01-15T03:52:14;24.00;;;9.13;;
72517;SDS011;60540;51.178;6.738;2024-01-15T04:03:12;14.32;;;7.88;;
72517;SDS011;60540;51.178;6.738;2024-01-15T04:05:56;16.77;;;8.38;;
72517;SDS011;60540;51.178;6.738;2024-01-15T04:08:41;12.20;;;7.03;;
72517;SDS011;60540;51.178;6.738;2024-01-15T04:11:25;16.45;;;7.85;;
72517;SDS011;60540;51.178;6.738;2024-01-15T04:14:09;16.10;;;7.18;;
72517;SDS011;60540;51.178;6.738;2024-01-15T04:16:54;18.00;;;7.95;;
72517;SDS011;60540;51.178;6.738;2024-01-15T04:19:38;18.05;;;6.78;;
72517;SDS011;60540;51.178;6.738;2024-01-15T04:22:22;16.80;;;6.70;;
72517;SDS011;60540;51.178;6.738;2024-01-15T04:25:06;15.10;;;5.75;;
72517;SDS011;60540;51.178;6.738;2024-01-15T04:27:51;11.38;;;4.90;;
72517;SDS011;60540;51.178;6.738;2024-01-15T04:30:35;12.48;;;6.30;;
72517;SDS011;60540;51.178;6.738;2024-01-15T04:33:19;13.60;;;6.22;;
72517;SDS011;60540;51.178;6.738;2024-01-15T04:36:04;11.43;;;6.07;;
72517;SDS011;60540;51.178;6.738;2024-01-15T04:38:49;11.80;;;5.60;;
72517;SDS011;60540;51.178;6.738;2024-01-15T04:41:33;12.00;;;6.25;;
72517;SDS011;60540;51.178;6.738;2024-01-15T04:44:18;13.40;;;5.32;;
72517;SDS011;60540;51.178;6.738;2024-01-15T04:47:02;20.45;;;6.68;;
72517;SDS011;60540;51.178;6.738;2024-01-15T04:49:47;12.88;;;5.43;;
72517;SDS011;60540;51.178;6.738;2024-01-15T04:58:01;11.30;;;4.70;;
72517;SDS011;60540;51.178;6.738;2024-01-15T05:00:45;12.63;;;6.00;;
72517;SDS011;60540;51.178;6.738;2024-01-15T05:03:30;15.32;;;6.00;;
72517;SDS011;60540;51.178;6.738;2024-01-15T05:06:14;14.85;;;6.57;;
72517;SDS011;60540;51.178;6.738;2024-01-15T05:08:58;17.05;;;6.00;;
72517;SDS011;60540;51.178;6.738;2024-01-15T05:11:43;12.57;;;5.05;;
72517;SDS011;60540;51.178;6.738;2024-01-15T05:14:27;14.52;;;6.32;;
72517;SDS011;60540;51.178;6.738;2024-01-15T05:17:12;15.80;;;6.22;;
72517;SDS011;60540;51.178;6.738;2024-01-15T05:19:56;13.68;;;6.03;;
72517;SDS011;60540;51.178;6.738;2024-01-15T05:22:40;10.60;;;5.43;;
72517;SDS011;60540;51.178;6.738;2024-01-15T05:25:25;14.52;;;5.22;;
72517;SDS011;60540;51.178;6.738;2024-01-15T05:28:09;12.50;;;5.70;;
72517;SDS011;60540;51.178;6.738;2024-01-15T05:30:53;13.95;;;6.82;;
72517;SDS011;60540;51.178;6.738;2024-01-15T05:36:24;11.40;;;5.43;;
72517;SDS011;60540;51.178;6.738;2024-01-15T05:39:08;12.95;;;5.32;;
72517;SDS011;60540;51.178;6.738;2024-01-15T05:41:52;10.13;;;5.03;;
72517;SDS011;60540;51.178;6.738;2024-01-15T05:44:37;11.25;;;5.53;;
72517;SDS011;60540;51.178;6.738;2024-01-15T05:47:21;8.02;;;5.22;;
72517;SDS011;60540;51.178;6.738;2024-01-15T05:50:05;11.32;;;5.30;;
72517;SDS011;60540;51.178;6.738;2024-01-15T05:52:51;11.45;;;5.80;;
72517;SDS011;60540;51.178;6.738;2024-01-15T05:55:36;11.88;;;6.30;;
72517;SDS011;60540;51.178;6.738;2024-01-15T05:58:21;12.68;;;5.22;;
72517;SDS011;60540;51.178;6.738;2024-01-15T06:01:06;12.13;;;4.90;;
72517;SDS011;60540;51.178;6.738;2024-01-15T06:03:50;8.65;;;4.60;;
72517;SDS011;60540;51.178;6.738;2024-01-15T06:06:34;10.85;;;5.13;;
72517;SDS011;60540;51.178;6.738;2024-01-15T06:09:18;12.15;;;5.97;;
72517;SDS011;60540;51.178;6.738;2024-01-15T06:12:02;11.50;;;5.53;;
72517;SDS011;60540;51.178;6.738;2024-01-15T06:14:47;11.57;;;4.88;;
72517;SDS011;60540;51.178;6.738;2024-01-15T06:17:32;13.40;;;4.90;;
72517;SDS011;60540;51.178;6.738;2024-01-15T06:20:16;8.88;;;4.90;;
72517;SDS011;60540;51.178;6.738;2024-01-15T06:23:00;11.27;;;6.15;;
72517;SDS011;60540;51.178;6.738;2024-01-15T06:25:45;9.38;;;4.85;;
72517;SDS011;60540;51.178;6.738;2024-01-15T06:28:29;8.40;;;4.57;;
72517;SDS011;60540;51.178;6.738;2024-01-15T06:31:13;8.57;;;4.20;;
72517;SDS011;60540;51.178;6.738;2024-01-15T06:33:58;9.35;;;4.38;;
72517;SDS011;60540;51.178;6.738;2024-01-15T06:36:42;11.05;;;4.40;;
72517;SDS011;60540;51.178;6.738;2024-01-15T06:39:27;9.65;;;4.47;;
72517;SDS011;60540;51.178;6.738;2024-01-15T06:42:11;8.90;;;4.38;;
72517;SDS011;60540;51.178;6.738;2024-01-15T06:44:56;8.73;;;5.05;;
72517;SDS011;60540;51.178;6.738;2024-01-15T06:47:40;12.07;;;4.80;;
72517;SDS011;60540;51.178;6.738;2024-01-15T06:50:24;8.65;;;4.30;;
72517;SDS011;60540;51.178;6.738;2024-01-15T06:53:09;10.05;;;4.50;;
72517;SDS011;60540;51.178;6.738;2024-01-15T06:55:53;11.38;;;4.93;;
72517;SDS011;60540;51.178;6.738;2024-01-15T06:58:37;13.45;;;5.40;;
72517;SDS011;60540;51.178;6.738;2024-01-15T07:01:22;10.05;;;5.65;;
72517;SDS011;60540;51.178;6.738;2024-01-15T07:04:06;15.32;;;5.25;;
72517;SDS011;60540;51.178;6.738;2024-01-15T07:06:50;9.95;;;5.80;;
72517;SDS011;60540;51.178;6.738;2024-01-15T07:09:34;11.85;;;5.65;;
72517;SDS011;60540;51.178;6.738;2024-01-15T07:12:19;13.30;;;6.78;;
72517;SDS011;60540;51.178;6.738;2024-01-15T07:15:03;12.30;;;6.55;;
72517;SDS011;60540;51.178;6.738;2024-01-15T07:17:48;14.05;;;7.20;;
72517;SDS011;60540;51.178;6.738;2024-01-15T07:20:32;13.18;;;5.43;;
72517;SDS011;60540;51.178;6.738;2024-01-15T07:23:16;11.65;;;6.00;;
72517;SDS011;60540;51.178;6.738;2024-01-15T07:26:01;11.00;;;5.28;;
72517;SDS011;60540;51.178;6.738;2024-01-15T07:28:45;12.30;;;5.78;;
72517;SDS011;60540;51.178;6.738;2024-01-15T07:31:29;13.27;;;4.85;;
72517;SDS011;60540;51.178;6.738;2024-01-15T07:34:13;12.75;;;6.68;;
72517;SDS011;60540;51.178;6.738;2024-01-15T07:36:57;16.85;;;7.20;;
72517;SDS011;60540;51.178;6.738;2024-01-15T07:39:42;12.07;;;5.93;;
72517;SDS011;60540;51.178;6.738;2024-01-15T07:42:26;11.68;;;5.65;;
72517;SDS011;60540;51.178;6.738;2024-01-15T07:45:10;13.30;;;6.05;;
72517;SDS011;60540;51.178;6.738;2024-01-15T07:47:55;14.57;;;6.18;;
72517;SDS011;60540;51.178;6.738;2024-01-15T07:50:39;14.52;;;6.13;;
72517;SDS011;60540;51.178;6.738;2024-01-15T07:53:23;9.43;;;4.90;;
72517;SDS011;60540;51.178;6.738;2024-01-15T07:56:08;14.60;;;6.53;;
72517;SDS011;60540;51.178;6.738;2024-01-15T07:58:52;13.75;;;6.70;;
72517;SDS011;60540;51.178;6.738;2024-01-15T08:01:36;10.43;;;5.78;;
72517;SDS011;60540;51.178;6.738;2024-01-15T08:04:20;16.83;;;7.63;;
72517;SDS011;60540;51.178;6.738;2024-01-15T08:07:06;15.07;;;6.97;;
72517;SDS011;60540;51.178;6.738;2024-01-15T08:09:51;13.90;;;7.28;;
72517;SDS011;60540;51.178;6.738;2024-01-15T08:12:36;16.17;;;8.43;;
72517;SDS011;60540;51.178;6.738;2024-01-15T08:15:20;14.30;;;6.53;;
72517;SDS011;60540;51.178;6.738;2024-01-15T08:18:05;15.32;;;7.22;;
72517;SDS011;60540;51.178;6.738;2024-01-15T08:20:49;13.98;;;6.93;;
72517;SDS011;60540;51.178;6.738;2024-01-15T08:23:34;13.88;;;7.95;;
72517;SDS011;60540;51.178;6.738;2024-01-15T08:26:18;14.25;;;7.97;;
72517;SDS011;60540;51.178;6.738;2024-01-15T08:29:03;13.13;;;7.43;;
72517;SDS011;60540;51.178;6.738;2024-01-15T08:31:47;14.80;;;7.53;;
72517;SDS011;60540;51.178;6.738;2024-01-15T08:34:31;15.85;;;7.78;;
72517;SDS011;60540;51.178;6.738;2024-01-15T08:37:15;13.35;;;7.05;;
72517;SDS011;60540;51.178;6.738;2024-01-15T08:40:00;12.77;;;6.55;;
72517;SDS011;60540;51.178;6.738;2024-01-15T08:42:44;14.15;;;6.40;;
72517;SDS011;60540;51.178;6.738;2024-01-15T08:45:32;15.38;;;6.80;;
72517;SDS011;60540;51.178;6.738;2024-01-15T08:48:17;17.15;;;7.50;;
72517;SDS011;60540;51.178;6.738;2024-01-15T08:51:02;17.38;;;8.45;;
72517;SDS011;60540;51.178;6.738;2024-01-15T08:53:46;14.38;;;6.95;;
72517;SDS011;60540;51.178;6.738;2024-01-15T08:56:30;14.15;;;7.55;;
72517;SDS011;60540;51.178;6.738;2024-01-15T08:59:15;16.83;;;7.82;;
72517;SDS011;60540;51.178;6.738;2024-01-15T09:02:00;18.25;;;7.03;;
72517;SDS011;60540;51.178;6.738;2024-01-15T09:04:44;13.43;;;6.60;;
72517;SDS011;60540;51.178;6.738;2024-01-15T09:07:29;14.80;;;7.22;;
72517;SDS011;60540;51.178;6.738;2024-01-15T09:10:13;17.85;;;7.32;;
72517;SDS011;60540;51.178;6.738;2024-01-15T09:12:58;16.88;;;8.05;;
72517;SDS011;60540;51.178;6.738;2024-01-15T09:15:43;15.57;;;7.22;;
72517;SDS011;60540;51.178;6.738;2024-01-15T09:18:28;14.07;;;7.35;;
72517;SDS011;60540;51.178;6.738;2024-01-15T09:21:13;13.98;;;7.13;;
72517;SDS011;60540;51.178;6.738;2024-01-15T09:23:57;16.42;;;7.80;;
72517;SDS011;60540;51.178;6.738;2024-01-15T09:26:41;19.35;;;7.70;;
72517;SDS011;60540;51.178;6.738;2024-01-15T09:29:26;15.43;;;8.63;;
72517;SDS011;60540;51.178;6.738;2024-01-15T09:32:10;16.23;;;7.30;;
72517;SDS011;60540;51.178;6.738;2024-01-15T09:34:54;14.57;;;6.45;;
72517;SDS011;60540;51.178;6.738;2024-01-15T09:37:39;16.58;;;7.20;;
72517;SDS011;60540;51.178;6.738;2024-01-15T09:40:23;13.60;;;6.88;;
72517;SDS011;60540;51.178;6.738;2024-01-15T09:43:09;13.68;;;6.57;;
72517;SDS011;60540;51.178;6.738;2024-01-15T09:45:55;13.65;;;6.53;;
72517;SDS011;60540;51.178;6.738;2024-01-15T09:48:40;12.77;;;6.43;;
72517;SDS011;60540;51.178;6.738;2024-01-15T09:51:24;13.95;;;6.68;;
72517;SDS011;60540;51.178;6.738;2024-01-15T09:54:09;13.00;;;5.60;;
72517;SDS011;60540;51.178;6.738;2024-01-15T09:56:57;11.52;;;5.70;;
72517;SDS011;60540;51.178;6.738;2024-01-15T09:59:43;13.05;;;6.32;;
72517;SDS011;60540;51.178;6.738;2024-01-15T10:02:28;9.70;;;5.05;;
72517;SDS011;60540;51.178;6.738;2024-01-15T10:05:12;13.30;;;5.65;;
72517;SDS011;60540;51.178;6.738;2024-01-15T10:07:57;11.40;;;5.50;;
72517;SDS011;60540;51.178;6.738;2024-01-15T10:10:42;9.27;;;4.88;;
72517;SDS011;60540;51.178;6.738;2024-01-15T10:13:26;8.40;;;4.55;;
72517;SDS011;60540;51.178;6.738;2024-01-15T10:16:11;7.93;;;3.60;;
72517;SDS011;60540;51.178;6.738;2024-01-15T10:18:57;8.60;;;4.35;;
72517;SDS011;60540;51.178;6.738;2024-01-15T10:21:41;7.70;;;4.57;;
72517;SDS011;60540;51.178;6.738;2024-01-15T10:24:26;7.70;;;3.67;;
72517;SDS011;60540;51.178;6.738;2024-01-15T10:27:12;6.50;;;3.50;;
72517;SDS011;60540;51.178;6.738;2024-01-15T10:30:00;5.68;;;3.13;;
72517;SDS011;60540;51.178;6.738;2024-01-15T10:32:56;8.05;;;3.20;;
72517;SDS011;60540;51.178;6.738;2024-01-15T10:35:41;5.00;;;2.72;;
72517;SDS011;60540;51.178;6.738;2024-01-15T10:38:26;5.30;;;2.58;;
72517;SDS011;60540;51.178;6.738;2024-01-15T10:41:10;7.63;;;3.22;;
72517;SDS011;60540;51.178;6.738;2024-01-15T10:43:55;5.35;;;2.38;;
72517;SDS011;60540;51.178;6.738;2024-01-15T10:46:39;6.38;;;2.85;;
72517;SDS011;60540;51.178;6.738;2024-01-15T10:49:24;5.25;;;2.22;;
72517;SDS011;60540;51.178;6.738;2024-01-15T10:52:10;4.95;;;2.05;;
72517;SDS011;60540;51.178;6.738;2024-01-15T10:54:54;4.32;;;1.95;;
72517;SDS011;60540;51.178;6.738;2024-01-15T10:57:39;3.67;;;2.00;;
72517;SDS011;60540;51.178;6.738;2024-01-15T11:00:23;6.28;;;2.25;;
72517;SDS011;60540;51.178;6.738;2024-01-15T11:03:09;4.05;;;1.90;;
72517;SDS011;60540;51.178;6.738;2024-01-15T11:05:53;3.85;;;2.05;;
72517;SDS011;60540;51.178;6.738;2024-01-15T11:08:37;6.35;;;2.20;;
72517;SDS011;60540;51.178;6.738;2024-01-15T11:11:21;4.40;;;1.75;;
72517;SDS011;60540;51.178;6.738;2024-01-15T11:14:07;3.30;;;1.55;;
72517;SDS011;60540;51.178;6.738;2024-01-15T11:16:55;4.95;;;1.83;;
72517;SDS011;60540;51.178;6.738;2024-01-15T11:19:47;3.38;;;1.55;;
72517;SDS011;60540;51.178;6.738;2024-01-15T11:22:47;2.83;;;1.40;;
72517;SDS011;60540;51.178;6.738;2024-01-15T11:25:35;3.13;;;1.45;;
72517;SDS011;60540;51.178;6.738;2024-01-15T11:34:49;5.60;;;2.50;;
72517;SDS011;60540;51.178;6.738;2024-01-15T11:40:37;6.30;;;3.25;;
72517;SDS011;60540;51.178;6.738;2024-01-15T11:43:23;5.40;;;2.85;;
72517;SDS011;60540;51.178;6.738;2024-01-15T11:46:11;10.10;;;3.38;;
72517;SDS011;60540;51.178;6.738;2024-01-15T11:49:01;8.48;;;3.30;;
72517;SDS011;60540;51.178;6.738;2024-01-15T11:51:47;8.00;;;3.38;;
72517;SDS011;60540;51.178;6.738;2024-01-15T11:54:36;6.65;;;3.60;;
72517;SDS011;60540;51.178;6.738;2024-01-15T11:57:25;7.85;;;3.40;;
72517;SDS011;60540;51.178;6.738;2024-01-15T12:00:14;8.23;;;3.75;;
72517;SDS011;60540;51.178;6.738;2024-01-15T12:02:59;5.82;;;3.03;;
72517;SDS011;60540;51.178;6.738;2024-01-15T12:05:46;5.63;;;2.42;;
72517;SDS011;60540;51.178;6.738;2024-01-15T12:08:30;8.45;;;2.90;;
72517;SDS011;60540;51.178;6.738;2024-01-15T12:11:15;7.93;;;3.35;;
72517;SDS011;60540;51.178;6.738;2024-01-15T12:13:59;5.78;;;3.00;;
72517;SDS011;60540;51.178;6.738;2024-01-15T12:16:44;6.22;;;3.20;;
72517;SDS011;60540;51.178;6.738;2024-01-15T12:19:28;6.45;;;2.30;;
72517;SDS011;60540;51.178;6.738;2024-01-15T12:22:13;8.25;;;3.63;;
72517;SDS011;60540;51.178;6.738;2024-01-15T12:24:57;7.55;;;3.13;;
72517;SDS011;60540;51.178;6.738;2024-01-15T12:27:41;7.35;;;3.20;;
72517;SDS011;60540;51.178;6.738;2024-01-15T12:30:26;6.43;;;3.25;;
72517;SDS011;60540;51.178;6.738;2024-01-15T12:33:17;9.15;;;3.78;;
72517;SDS011;60540;51.178;6.738;2024-01-15T12:36:01;10.80;;;4.65;;
72517;SDS011;60540;51.178;6.738;2024-01-15T12:38:46;7.85;;;4.50;;
72517;SDS011;60540;51.178;6.738;2024-01-15T12:41:30;9.40;;;5.10;;
72517;SDS011;60540;51.178;6.738;2024-01-15T12:44:14;8.88;;;4.85;;
72517;SDS011;60540;51.178;6.738;2024-01-15T12:46:58;8.77;;;4.65;;
72517;SDS011;60540;51.178;6.738;2024-01-15T12:49:46;7.43;;;4.65;;
72517;SDS011;60540;51.178;6.738;2024-01-15T12:52:30;13.35;;;4.40;;
72517;SDS011;60540;51.178;6.738;2024-01-15T12:55:15;7.82;;;4.53;;
72517;SDS011;60540;51.178;6.738;2024-01-15T12:58:00;9.02;;;4.05;;
72517;SDS011;60540;51.178;6.738;2024-01-15T13:00:45;7.78;;;3.92;;
72517;SDS011;60540;51.178;6.738;2024-01-15T13:03:30;9.18;;;4.10;;
72517;SDS011;60540;51.178;6.738;2024-01-15T13:06:14;8.05;;;3.88;;
72517;SDS011;60540;51.178;6.738;2024-01-15T13:08:58;6.72;;;4.03;;
72517;SDS011;60540;51.178;6.738;2024-01-15T13:11:46;5.18;;;3.10;;
72517;SDS011;60540;51.178;6.738;2024-01-15T13:14:30;5.40;;;3.05;;
72517;SDS011;60540;51.178;6.738;2024-01-15T13:17:15;6.88;;;3.05;;
72517;SDS011;60540;51.178;6.738;2024-01-15T13:19:59;5.22;;;2.70;;
72517;SDS011;60540;51.178;6.738;2024-01-15T13:22:43;4.95;;;2.63;;
72517;SDS011;60540;51.178;6.738;2024-01-15T13:25:28;4.35;;;2.65;;
72517;SDS011;60540;51.178;6.738;2024-01-15T13:28:12;4.32;;;2.55;;
72517;SDS011;60540;51.178;6.738;2024-01-15T13:30:56;3.92;;;2.22;;
72517;SDS011;60540;51.178;6.738;2024-01-15T13:33:41;3.10;;;1.90;;
72517;SDS011;60540;51.178;6.738;2024-01-15T13:36:25;3.58;;;1.92;;
72517;SDS011;60540;51.178;6.738;2024-01-15T13:39:10;5.85;;;2.42;;
72517;SDS011;60540;51.178;6.738;2024-01-15T13:41:55;6.00;;;2.30;;
72517;SDS011;60540;51.178;6.738;2024-01-15T13:44:39;6.60;;;1.83;;
72517;SDS011;60540;51.178;6.738;2024-01-15T13:47:23;2.80;;;1.70;;
72517;SDS011;60540;51.178;6.738;2024-01-15T13:50:08;3.30;;;1.77;;
72517;SDS011;60540;51.178;6.738;2024-01-15T13:52:53;2.88;;;1.77;;
72517;SDS011;60540;51.178;6.738;2024-01-15T13:55:37;2.65;;;1.35;;
72517;SDS011;60540;51.178;6.738;2024-01-15T13:58:21;3.35;;;1.98;;
72517;SDS011;60540;51.178;6.738;2024-01-15T14:01:05;2.53;;;1.38;;
72517;SDS011;60540;51.178;6.738;2024-01-15T14:03:50;3.35;;;1.52;;
72517;SDS011;60540;51.178;6.738;2024-01-15T14:06:34;3.35;;;1.40;;
72517;SDS011;60540;51.178;6.738;2024-01-15T14:09:18;3.30;;;1.67;;
72517;SDS011;60540;51.178;6.738;2024-01-15T14:12:03;3.10;;;1.25;;
72517;SDS011;60540;51.178;6.738;2024-01-15T14:14:48;2.85;;;1.70;;
72517;SDS011;60540;51.178;6.738;2024-01-15T14:17:32;2.75;;;1.60;;
72517;SDS011;60540;51.178;6.738;2024-01-15T14:20:16;3.28;;;1.73;;
72517;SDS011;60540;51.178;6.738;2024-01-15T14:23:01;4.70;;;1.80;;
72517;SDS011;60540;51.178;6.738;2024-01-15T14:25:45;3.55;;;1.70;;
72517;SDS011;60540;51.178;6.738;2024-01-15T14:28:29;2.72;;;1.88;;
72517;SDS011;60540;51.178;6.738;2024-01-15T14:31:13;2.92;;;1.58;;
72517;SDS011;60540;51.178;6.738;2024-01-15T14:33:58;2.83;;;1.70;;
72517;SDS011;60540;51.178;6.738;2024-01-15T14:36:43;3.00;;;1.38;;
72517;SDS011;60540;51.178;6.738;2024-01-15T14:39:27;2.20;;;1.30;;
72517;SDS011;60540;51.178;6.738;2024-01-15T14:42:11;2.40;;;1.42;;
72517;SDS011;60540;51.178;6.738;2024-01-15T14:44:56;3.40;;;1.70;;
72517;SDS011;60540;51.178;6.738;2024-01-15T14:47:41;2.33;;;1.40;;
72517;SDS011;60540;51.178;6.738;2024-01-15T14:55:54;3.75;;;1.35;;
72517;SDS011;60540;51.178;6.738;2024-01-15T14:58:38;4.15;;;1.38;;
72517;SDS011;60540;51.178;6.738;2024-01-15T15:01:23;1.98;;;1.30;;
72517;SDS011;60540;51.178;6.738;2024-01-15T15:04:07;3.42;;;1.45;;
72517;SDS011;60540;51.178;6.738;2024-01-15T15:06:52;3.45;;;1.52;;
72517;SDS011;60540;51.178;6.738;2024-01-15T15:09:36;3.00;;;1.33;;
72517;SDS011;60540;51.178;6.738;2024-01-15T15:12:21;2.22;;;1.63;;
72517;SDS011;60540;51.178;6.738;2024-01-15T15:15:05;3.42;;;1.77;;
72517;SDS011;60540;51.178;6.738;2024-01-15T15:17:51;2.50;;;1.50;;
72517;SDS011;60540;51.178;6.738;2024-01-15T15:20:35;2.90;;;1.50;;
72517;SDS011;60540;51.178;6.738;2024-01-15T15:23:20;3.90;;;1.65;;
72517;SDS011;60540;51.178;6.738;2024-01-15T15:26:04;3.30;;;1.48;;
72517;SDS011;60540;51.178;6.738;2024-01-15T15:28:48;3.85;;;1.73;;
72517;SDS011;60540;51.178;6.738;2024-01-15T15:31:33;3.55;;;1.42;;
72517;SDS011;60540;51.178;6.738;2024-01-15T15:34:17;2.85;;;1.42;;
72517;SDS011;60540;51.178;6.738;2024-01-15T15:37:01;3.25;;;1.70;;
72517;SDS011;60540;51.178;6.738;2024-01-15T15:39:45;2.95;;;1.73;;
72517;SDS011;60540;51.178;6.738;2024-01-15T15:42:30;2.72;;;1.42;;
72517;SDS011;60540;51.178;6.738;2024-01-15T15:45:14;3.03;;;1.50;;
72517;SDS011;60540;51.178;6.738;2024-01-15T15:47:58;3.28;;;1.80;;
72517;SDS011;60540;51.178;6.738;2024-01-15T15:50:42;5.10;;;1.63;;
72517;SDS011;60540;51.178;6.738;2024-01-15T15:53:26;3.95;;;1.77;;
72517;SDS011;60540;51.178;6.738;2024-01-15T15:56:11;3.28;;;1.92;;
72517;SDS011;60540;51.178;6.738;2024-01-15T15:58:55;3.92;;;1.50;;
72517;SDS011;60540;51.178;6.738;2024-01-15T16:01:39;2.75;;;1.40;;
72517;SDS011;60540;51.178;6.738;2024-01-15T16:04:23;2.85;;;1.63;;
72517;SDS011;60540;51.178;6.738;2024-01-15T16:07:08;2.08;;;1.25;;
72517;SDS011;60540;51.178;6.738;2024-01-15T16:09:54;3.17;;;1.90;;
72517;SDS011;60540;51.178;6.738;2024-01-15T16:15:23;2.65;;;1.88;;
72517;SDS011;60540;51.178;6.738;2024-01-15T16:18:07;2.47;;;1.63;;
72517;SDS011;60540;51.178;6.738;2024-01-15T16:20:52;2.90;;;1.70;;
72517;SDS011;60540;51.178;6.738;2024-01-15T16:23:36;8.63;;;2.38;;
72517;SDS011;60540;51.178;6.738;2024-01-15T16:26:20;6.78;;;1.98;;
72517;SDS011;60540;51.178;6.738;2024-01-15T16:29:05;2.88;;;1.58;;
72517;SDS011;60540;51.178;6.738;2024-01-15T16:31:49;3.35;;;1.90;;
72517;SDS011;60540;51.178;6.738;2024-01-15T16:34:34;3.95;;;2.30;;
72517;SDS011;60540;51.178;6.738;2024-01-15T16:37:18;4.00;;;2.60;;
72517;SDS011;60540;51.178;6.738;2024-01-15T16:40:03;5.65;;;2.83;;
72517;SDS011;60540;51.178;6.738;2024-01-15T16:42:47;5.15;;;3.35;;
72517;SDS011;60540;51.178;6.738;2024-01-15T16:45:32;5.78;;;2.70;;
72517;SDS011;60540;51.178;6.738;2024-01-15T16:48:16;7.20;;;2.67;;
72517;SDS011;60540;51.178;6.738;2024-01-15T16:51:01;6.43;;;3.58;;
72517;SDS011;60540;51.178;6.738;2024-01-15T16:53:45;7.30;;;4.28;;
72517;SDS011;60540;51.178;6.738;2024-01-15T16:56:29;9.15;;;3.20;;